sensor_id;sensor_type;location;lat;lon;timestamp;pressure;altitude;pressure_sealevel;temperature;humidity
48390;BME280;34643;47.964;7.982;2022-11-11T00:00:29;98043.69;;;18.12;67.90
48390;BME280;34643;47.964;7.982;2022-11-11T00:05:48;98033.25;;;18.12;67.65
48390;BME280;34643;47.964;7.982;2022-11-11T00:11:10;98035.03;;;18.11;67.77
48390;BME280;34643;47.964;7.982;2022-11-11T00:16:30;98028.88;;;18.12;67.80
48390;BME280;34643;47.964;7.982;2022-11-11T00:22:21;98029.88;;;18.10;67.46
48390;BME280;34643;47.964;7.982;2022-11-11T00:27:59;98034.19;;;18.11;67.66
48390;BME280;34643;47.964;7.982;2022-11-11T00:33:18;98045.47;;;18.11;67.54
48390;BME280;34643;47.964;7.982;2022-11-11T00:38:37;98058.63;;;18.10;67.60
48390;BME280;34643;47.964;7.982;2022-11-11T00:44:06;98049.13;;;18.09;67.49
48390;BME280;34643;47.964;7.982;2022-11-11T00:49:24;98058.69;;;18.08;67.62
48390;BME280;34643;47.964;7.982;2022-11-11T00:55:02;98061.41;;;18.07;67.60
48390;BME280;34643;47.964;7.982;2022-11-11T01:00:21;98062.34;;;18.05;67.54
48390;BME280;34643;47.964;7.982;2022-11-11T01:05:40;98055.41;;;18.04;67.84
48390;BME280;34643;47.964;7.982;2022-11-11T01:10:59;98048.25;;;18.08;67.62
48390;BME280;34643;47.964;7.982;2022-11-11T01:16:24;98054.34;;;18.09;67.49
48390;BME280;34643;47.964;7.982;2022-11-11T01:21:43;98052.66;;;18.08;67.33
48390;BME280;34643;47.964;7.982;2022-11-11T01:27:02;98059.56;;;18.09;67.46
48390;BME280;34643;47.964;7.982;2022-11-11T01:32:21;98064.78;;;18.09;67.51
48390;BME280;34643;47.964;7.982;2022-11-11T01:37:40;98070.94;;;18.08;67.38
48390;BME280;34643;47.964;7.982;2022-11-11T01:48:24;98087.44;;;18.08;67.46
48390;BME280;34643;47.964;7.982;2022-11-11T01:54:06;98091.00;;;18.07;67.38
48390;BME280;34643;47.964;7.982;2022-11-11T01:59:26;98091.09;;;18.05;67.37
48390;BME280;34643;47.964;7.982;2022-11-11T02:04:46;98094.53;;;18.06;67.33
48390;BME280;34643;47.964;7.982;2022-11-11T02:10:24;98098.91;;;18.05;67.47
48390;BME280;34643;47.964;7.982;2022-11-11T02:15:45;98093.78;;;18.04;67.50
48390;BME280;34643;47.964;7.982;2022-11-11T02:21:04;98099.84;;;18.04;67.56
48390;BME280;34643;47.964;7.982;2022-11-11T02:26:23;98104.22;;;18.04;67.28
48390;BME280;34643;47.964;7.982;2022-11-11T02:31:42;98100.03;;;18.01;67.58
48390;BME280;34643;47.964;7.982;2022-11-11T02:37:02;98104.31;;;18.02;67.68
48390;BME280;34643;47.964;7.982;2022-11-11T02:42:22;98099.91;;;18.03;67.70
48390;BME280;34643;47.964;7.982;2022-11-11T02:47:41;98110.28;;;18.04;67.55
48390;BME280;34643;47.964;7.982;2022-11-11T02:53:00;98120.75;;;18.04;67.32
48390;BME280;34643;47.964;7.982;2022-11-11T02:58:19;98115.50;;;18.04;67.62
48390;BME280;34643;47.964;7.982;2022-11-11T03:03:38;98124.28;;;18.03;67.17
48390;BME280;34643;47.964;7.982;2022-11-11T03:08:57;98119.06;;;18.03;67.45
48390;BME280;34643;47.964;7.982;2022-11-11T03:14:15;98117.28;;;18.04;67.41
48390;BME280;34643;47.964;7.982;2022-11-11T03:19:34;98119.06;;;18.03;67.39
48390;BME280;34643;47.964;7.982;2022-11-11T03:24:53;98121.75;;;18.02;67.34
48390;BME280;34643;47.964;7.982;2022-11-11T03:30:31;98123.53;;;18.01;67.31
48390;BME280;34643;47.964;7.982;2022-11-11T03:35:50;98126.16;;;18.01;67.35
48390;BME280;34643;47.964;7.982;2022-11-11T03:41:09;98134.06;;;18.00;67.53
48390;BME280;34643;47.964;7.982;2022-11-11T03:46:28;98140.22;;;17.99;67.52
48390;BME280;34643;47.964;7.982;2022-11-11T03:51:47;98147.22;;;17.98;67.42
48390;BME280;34643;47.964;7.982;2022-11-11T03:57:06;98135.06;;;17.97;67.43
48390;BME280;34643;47.964;7.982;2022-11-11T04:02:44;98129.84;;;17.97;67.46
48390;BME280;34643;47.964;7.982;2022-11-11T04:08:21;98122.75;;;17.99;67.32
48390;BME280;34643;47.964;7.982;2022-11-11T04:14:00;98121.94;;;17.99;67.36
48390;BME280;34643;47.964;7.982;2022-11-11T04:19:39;98114.84;;;18.01;67.57
48390;BME280;34643;47.964;7.982;2022-11-11T04:25:17;98113.19;;;18.00;67.30
48390;BME280;34643;47.964;7.982;2022-11-11T04:30:55;98112.22;;;18.01;67.44
48390;BME280;34643;47.964;7.982;2022-11-11T04:36:14;98100.13;;;18.00;67.21
48390;BME280;34643;47.964;7.982;2022-11-11T04:41:33;98104.41;;;18.01;67.27
48390;BME280;34643;47.964;7.982;2022-11-11T04:46:53;98097.41;;;18.01;67.36
48390;BME280;34643;47.964;7.982;2022-11-11T04:52:12;98094.81;;;18.01;67.41
48390;BME280;34643;47.964;7.982;2022-11-11T04:57:47;98086.19;;;17.99;67.48
48390;BME280;34643;47.964;7.982;2022-11-11T05:03:06;98081.06;;;17.98;67.58
48390;BME280;34643;47.964;7.982;2022-11-11T05:08:35;98087.22;;;17.97;67.63
48390;BME280;34643;47.964;7.982;2022-11-11T05:14:13;98090.75;;;17.96;67.49
48390;BME280;34643;47.964;7.982;2022-11-11T05:19:51;98101.28;;;17.94;67.69
48390;BME280;34643;47.964;7.982;2022-11-11T05:25:29;98114.00;;;18.00;67.47
48390;BME280;34643;47.964;7.982;2022-11-11T05:30:51;98129.44;;;18.05;67.81
48390;BME280;34643;47.964;7.982;2022-11-11T05:36:10;98140.19;;;18.31;67.88
48390;BME280;34643;47.964;7.982;2022-11-11T05:41:29;98146.84;;;16.00;56.73
48390;BME280;34643;47.964;7.982;2022-11-11T05:46:48;98167.34;;;14.02;55.05
48390;BME280;34643;47.964;7.982;2022-11-11T05:52:08;98174.56;;;13.94;53.55
48390;BME280;34643;47.964;7.982;2022-11-11T05:57:26;98184.00;;;16.03;53.54
48390;BME280;34643;47.964;7.982;2022-11-11T06:02:45;98187.09;;;16.84;57.45
48390;BME280;34643;47.964;7.982;2022-11-11T06:08:04;98200.88;;;17.04;58.58
48390;BME280;34643;47.964;7.982;2022-11-11T06:13:23;98199.72;;;17.09;59.56
48390;BME280;34643;47.964;7.982;2022-11-11T06:18:42;98192.59;;;17.13;59.79
48390;BME280;34643;47.964;7.982;2022-11-11T06:24:01;98197.81;;;17.13;60.29
48390;BME280;34643;47.964;7.982;2022-11-11T06:29:20;98206.31;;;17.17;60.61
48390;BME280;34643;47.964;7.982;2022-11-11T06:34:39;98203.72;;;17.17;61.01
48390;BME280;34643;47.964;7.982;2022-11-11T06:39:58;98221.16;;;17.16;61.24
48390;BME280;34643;47.964;7.982;2022-11-11T06:45:17;98223.75;;;17.16;61.54
48390;BME280;34643;47.964;7.982;2022-11-11T06:50:36;98225.50;;;17.16;61.55
48390;BME280;34643;47.964;7.982;2022-11-11T06:55:55;98229.88;;;17.15;61.87
48390;BME280;34643;47.964;7.982;2022-11-11T07:01:15;98234.25;;;17.15;61.87
48390;BME280;34643;47.964;7.982;2022-11-11T07:06:34;98233.41;;;17.14;62.17
48390;BME280;34643;47.964;7.982;2022-11-11T07:11:53;98241.22;;;17.14;62.28
48390;BME280;34643;47.964;7.982;2022-11-11T07:17:11;98242.16;;;17.13;62.18
48390;BME280;34643;47.964;7.982;2022-11-11T07:22:34;98243.00;;;17.14;62.42
48390;BME280;34643;47.964;7.982;2022-11-11T07:27:52;98237.78;;;17.14;62.49
48390;BME280;34643;47.964;7.982;2022-11-11T07:33:11;98236.09;;;17.13;62.60
48390;BME280;34643;47.964;7.982;2022-11-11T07:38:30;98239.56;;;17.13;62.48
48390;BME280;34643;47.964;7.982;2022-11-11T07:43:49;98233.50;;;17.13;62.64
48390;BME280;34643;47.964;7.982;2022-11-11T07:49:08;98234.34;;;17.13;62.71
48390;BME280;34643;47.964;7.982;2022-11-11T07:54:27;98231.72;;;17.13;62.85
48390;BME280;34643;47.964;7.982;2022-11-11T07:59:47;98239.56;;;17.13;62.75
48390;BME280;34643;47.964;7.982;2022-11-11T08:05:07;98231.59;;;17.16;62.90
48390;BME280;34643;47.964;7.982;2022-11-11T08:10:27;98240.16;;;17.18;62.67
48390;BME280;34643;47.964;7.982;2022-11-11T08:15:46;98244.31;;;17.22;62.92
48390;BME280;34643;47.964;7.982;2022-11-11T08:21:05;98241.69;;;17.22;62.78
48390;BME280;34643;47.964;7.982;2022-11-11T08:26:24;98239.09;;;17.22;62.75
48390;BME280;34643;47.964;7.982;2022-11-11T08:31:44;98241.69;;;17.22;62.63
48390;BME280;34643;47.964;7.982;2022-11-11T08:37:02;98238.00;;;17.26;62.75
48390;BME280;34643;47.964;7.982;2022-11-11T08:42:21;98240.59;;;17.26;62.80
48390;BME280;34643;47.964;7.982;2022-11-11T08:47:42;98241.53;;;17.25;62.81
48390;BME280;34643;47.964;7.982;2022-11-11T08:53:01;98250.13;;;17.27;62.99
48390;BME280;34643;47.964;7.982;2022-11-11T08:58:21;98244.09;;;17.27;62.94
48390;BME280;34643;47.964;7.982;2022-11-11T09:03:40;98245.81;;;17.26;63.00
48390;BME280;34643;47.964;7.982;2022-11-11T09:09:01;98251.91;;;17.27;63.11
48390;BME280;34643;47.964;7.982;2022-11-11T09:14:20;98248.44;;;17.26;63.30
48390;BME280;34643;47.964;7.982;2022-11-11T09:19:39;98252.75;;;17.27;63.25
48390;BME280;34643;47.964;7.982;2022-11-11T09:24:58;98254.41;;;17.28;63.34
48390;BME280;34643;47.964;7.982;2022-11-11T09:30:17;98261.41;;;17.28;63.15
48390;BME280;34643;47.964;7.982;2022-11-11T09:35:36;98260.56;;;17.27;63.30
48390;BME280;34643;47.964;7.982;2022-11-11T09:46:31;98245.75;;;17.28;63.27
48390;BME280;34643;47.964;7.982;2022-11-11T09:57:17;98247.44;;;17.29;63.33
48390;BME280;34643;47.964;7.982;2022-11-11T10:08:05;98240.53;;;17.28;63.57
48390;BME280;34643;47.964;7.982;2022-11-11T10:13:30;98238.75;;;17.28;63.64
48390;BME280;34643;47.964;7.982;2022-11-11T10:24:40;98215.28;;;17.28;63.51
48390;BME280;34643;47.964;7.982;2022-11-11T10:30:00;98214.44;;;17.28;63.48
48390;BME280;34643;47.964;7.982;2022-11-11T10:35:28;98211.91;;;17.26;63.69
48390;BME280;34643;47.964;7.982;2022-11-11T10:40:49;98200.63;;;17.26;63.75
48390;BME280;34643;47.964;7.982;2022-11-11T10:46:20;98192.81;;;17.26;63.68
48390;BME280;34643;47.964;7.982;2022-11-11T11:08:23;98184.28;;;17.22;63.69
48390;BME280;34643;47.964;7.982;2022-11-11T11:13:43;98176.47;;;17.22;63.93
48390;BME280;34643;47.964;7.982;2022-11-11T11:19:16;98173.84;;;17.22;63.79
48390;BME280;34643;47.964;7.982;2022-11-11T11:24:36;98173.94;;;17.21;63.86
48390;BME280;34643;47.964;7.982;2022-11-11T11:29:59;98176.59;;;17.19;63.87
48390;BME280;34643;47.964;7.982;2022-11-11T11:35:31;98187.03;;;17.19;64.07
48390;BME280;34643;47.964;7.982;2022-11-11T11:40:51;98190.53;;;17.20;64.00
48390;BME280;34643;47.964;7.982;2022-11-11T11:46:44;98192.34;;;17.18;63.97
48390;BME280;34643;47.964;7.982;2022-11-11T11:57:23;98196.94;;;17.30;63.85
48390;BME280;34643;47.964;7.982;2022-11-11T12:08:41;98208.09;;;17.49;63.74
48390;BME280;34643;47.964;7.982;2022-11-11T12:24:45;98204.09;;;17.60;63.58
48390;BME280;34643;47.964;7.982;2022-11-11T12:30:07;98192.66;;;17.62;63.47
48390;BME280;34643;47.964;7.982;2022-11-11T12:35:40;98201.41;;;17.61;63.70
48390;BME280;34643;47.964;7.982;2022-11-11T12:41:15;98198.78;;;17.61;63.92
48390;BME280;34643;47.964;7.982;2022-11-11T13:08:33;98167.63;;;17.58;63.77
48390;BME280;34643;47.964;7.982;2022-11-11T13:19:33;98163.50;;;17.54;64.02
48390;BME280;34643;47.964;7.982;2022-11-11T13:24:55;98159.25;;;17.52;63.81
48390;BME280;34643;47.964;7.982;2022-11-11T13:41:03;98161.97;;;17.50;63.88
48390;BME280;34643;47.964;7.982;2022-11-11T13:51:56;98159.44;;;17.48;63.99
48390;BME280;34643;47.964;7.982;2022-11-11T14:02:36;98160.44;;;17.46;64.01
48390;BME280;34643;47.964;7.982;2022-11-11T14:07:55;98162.22;;;17.45;63.96
48390;BME280;34643;47.964;7.982;2022-11-11T14:18:41;98159.69;;;17.44;64.07
48390;BME280;34643;47.964;7.982;2022-11-11T14:24:00;98166.66;;;17.43;63.98
48390;BME280;34643;47.964;7.982;2022-11-11T14:29:19;98168.53;;;17.41;64.11
48390;BME280;34643;47.964;7.982;2022-11-11T14:34:43;98165.16;;;17.39;64.24
48390;BME280;34643;47.964;7.982;2022-11-11T14:40:09;98152.19;;;17.38;64.10
48390;BME280;34643;47.964;7.982;2022-11-11T14:50:47;98143.59;;;17.36;64.12
48390;BME280;34643;47.964;7.982;2022-11-11T14:56:11;98144.97;;;17.43;64.01
48390;BME280;34643;47.964;7.982;2022-11-11T15:01:32;98147.75;;;17.56;64.27
48390;BME280;34643;47.964;7.982;2022-11-11T15:12:23;98148.16;;;17.64;65.01
48390;BME280;34643;47.964;7.982;2022-11-11T15:39:47;98176.59;;;17.37;65.53
48390;BME280;34643;47.964;7.982;2022-11-11T15:45:14;98177.59;;;17.34;65.53
48390;BME280;34643;47.964;7.982;2022-11-11T15:50:37;98183.81;;;17.32;65.30
48390;BME280;34643;47.964;7.982;2022-11-11T15:55:56;98193.47;;;17.29;65.40
48390;BME280;34643;47.964;7.982;2022-11-11T16:01:15;98206.59;;;17.28;65.19
48390;BME280;34643;47.964;7.982;2022-11-11T16:06:34;98206.69;;;17.26;65.32
48390;BME280;34643;47.964;7.982;2022-11-11T16:11:53;98202.56;;;17.22;65.35
48390;BME280;34643;47.964;7.982;2022-11-11T16:17:14;98189.59;;;17.21;65.24
48390;BME280;34643;47.964;7.982;2022-11-11T16:22:34;98187.91;;;17.20;65.05
48390;BME280;34643;47.964;7.982;2022-11-11T16:27:54;98188.91;;;17.17;65.08
48390;BME280;34643;47.964;7.982;2022-11-11T16:33:17;98195.88;;;17.17;65.01
48390;BME280;34643;47.964;7.982;2022-11-11T16:38:37;98184.69;;;17.15;65.00
48390;BME280;34643;47.964;7.982;2022-11-11T16:44:01;98202.09;;;17.14;65.21
48390;BME280;34643;47.964;7.982;2022-11-11T16:49:24;98196.09;;;17.12;64.92
48390;BME280;34643;47.964;7.982;2022-11-11T16:54:47;98200.56;;;17.10;65.16
48390;BME280;34643;47.964;7.982;2022-11-11T17:00:11;98193.69;;;17.09;64.92
48390;BME280;34643;47.964;7.982;2022-11-11T17:11:09;98185.13;;;17.05;64.85
48390;BME280;34643;47.964;7.982;2022-11-11T17:16:28;98186.91;;;17.05;65.09
48390;BME280;34643;47.964;7.982;2022-11-11T17:21:47;98199.19;;;17.03;65.06
48390;BME280;34643;47.964;7.982;2022-11-11T17:27:07;98193.97;;;17.03;65.08
48390;BME280;34643;47.964;7.982;2022-11-11T17:32:26;98195.81;;;17.01;65.09
48390;BME280;34643;47.964;7.982;2022-11-11T17:37:45;98208.09;;;16.99;64.89
48390;BME280;34643;47.964;7.982;2022-11-11T17:43:04;98207.34;;;16.97;65.12
48390;BME280;34643;47.964;7.982;2022-11-11T17:48:23;98209.94;;;16.97;64.94
48390;BME280;34643;47.964;7.982;2022-11-11T17:53:42;98209.94;;;16.97;64.95
48390;BME280;34643;47.964;7.982;2022-11-11T17:59:00;98204.56;;;17.00;64.74
48390;BME280;34643;47.964;7.982;2022-11-11T18:04:19;98203.41;;;17.05;64.81
48390;BME280;34643;47.964;7.982;2022-11-11T18:09:38;98222.19;;;17.12;64.62
48390;BME280;34643;47.964;7.982;2022-11-11T18:14:57;98216.63;;;17.20;64.59
48390;BME280;34643;47.964;7.982;2022-11-11T18:20:16;98222.53;;;17.23;64.55
48390;BME280;34643;47.964;7.982;2022-11-11T18:25:35;98213.59;;;17.27;64.70
48390;BME280;34643;47.964;7.982;2022-11-11T18:30:59;98230.03;;;17.29;64.64
48390;BME280;34643;47.964;7.982;2022-11-11T18:36:18;98219.59;;;17.29;64.86
48390;BME280;34643;47.964;7.982;2022-11-11T18:41:38;98210.06;;;17.28;64.80
48390;BME280;34643;47.964;7.982;2022-11-11T18:46:57;98209.06;;;17.31;64.72
48390;BME280;34643;47.964;7.982;2022-11-11T18:52:16;98208.16;;;17.32;64.75
48390;BME280;34643;47.964;7.982;2022-11-11T18:57:35;98213.28;;;17.34;64.88
48390;BME280;34643;47.964;7.982;2022-11-11T19:02:54;98209.75;;;17.35;64.60
48390;BME280;34643;47.964;7.982;2022-11-11T19:08:14;98203.63;;;17.36;64.59
48390;BME280;34643;47.964;7.982;2022-11-11T19:13:33;98208.84;;;17.36;64.84
48390;BME280;34643;47.964;7.982;2022-11-11T19:18:53;98214.81;;;17.38;64.93
48390;BME280;34643;47.964;7.982;2022-11-11T19:24:11;98215.72;;;17.37;64.85
48390;BME280;34643;47.964;7.982;2022-11-11T19:29:32;98209.59;;;17.38;64.92
48390;BME280;34643;47.964;7.982;2022-11-11T19:34:51;98221.72;;;17.39;64.83
48390;BME280;34643;47.964;7.982;2022-11-11T19:40:11;98216.50;;;17.39;64.80
48390;BME280;34643;47.964;7.982;2022-11-11T19:45:30;98219.03;;;17.40;64.62
48390;BME280;34643;47.964;7.982;2022-11-11T19:50:49;98222.47;;;17.41;64.93
48390;BME280;34643;47.964;7.982;2022-11-11T19:56:09;98207.75;;;17.40;64.85
48390;BME280;34643;47.964;7.982;2022-11-11T20:01:28;98209.41;;;17.41;64.82
48390;BME280;34643;47.964;7.982;2022-11-11T20:06:47;98215.44;;;17.43;64.79
48390;BME280;34643;47.964;7.982;2022-11-11T20:12:06;98224.16;;;17.42;64.66
48390;BME280;34643;47.964;7.982;2022-11-11T20:17:25;98214.50;;;17.44;64.78
48390;BME280;34643;47.964;7.982;2022-11-11T20:22:45;98216.69;;;17.52;64.82
48390;BME280;34643;47.964;7.982;2022-11-11T20:28:04;98220.94;;;17.54;64.92
48390;BME280;34643;47.964;7.982;2022-11-11T20:33:23;98220.00;;;17.55;64.90
48390;BME280;34643;47.964;7.982;2022-11-11T20:38:42;98224.44;;;17.53;64.83
48390;BME280;34643;47.964;7.982;2022-11-11T20:44:01;98226.16;;;17.54;64.93
48390;BME280;34643;47.964;7.982;2022-11-11T20:49:20;98220.09;;;17.54;65.14
48390;BME280;34643;47.964;7.982;2022-11-11T20:54:39;98221.84;;;17.53;65.01
48390;BME280;34643;47.964;7.982;2022-11-11T20:59:58;98214.00;;;17.53;64.72
48390;BME280;34643;47.964;7.982;2022-11-11T21:05:17;98209.66;;;17.54;64.61
48390;BME280;34643;47.964;7.982;2022-11-11T21:10:36;98216.69;;;17.52;64.76
48390;BME280;34643;47.964;7.982;2022-11-11T21:16:08;98220.16;;;17.52;64.69
48390;BME280;34643;47.964;7.982;2022-11-11T21:21:30;98223.63;;;17.53;64.75
48390;BME280;34643;47.964;7.982;2022-11-11T21:26:50;98221.84;;;17.53;64.59
48390;BME280;34643;47.964;7.982;2022-11-11T21:32:09;98220.94;;;17.54;64.65
48390;BME280;34643;47.964;7.982;2022-11-11T21:37:27;98227.66;;;17.58;64.64
48390;BME280;34643;47.964;7.982;2022-11-11T21:42:46;98227.66;;;17.58;64.44
48390;BME280;34643;47.964;7.982;2022-11-11T21:48:05;98227.59;;;17.60;64.67
48390;BME280;34643;47.964;7.982;2022-11-11T21:53:24;98231.97;;;17.59;64.64
48390;BME280;34643;47.964;7.982;2022-11-11T21:58:43;98226.75;;;17.59;64.67
48390;BME280;34643;47.964;7.982;2022-11-11T22:04:06;98221.38;;;17.62;64.67
48390;BME280;34643;47.964;7.982;2022-11-11T22:09:25;98224.06;;;17.61;64.71
48390;BME280;34643;47.964;7.982;2022-11-11T22:14:44;98224.06;;;17.61;64.47
48390;BME280;34643;47.964;7.982;2022-11-11T22:20:04;98216.22;;;17.61;64.72
48390;BME280;34643;47.964;7.982;2022-11-11T22:25:22;98210.16;;;17.60;64.56
48390;BME280;34643;47.964;7.982;2022-11-11T22:30:41;98207.72;;;17.57;64.62
48390;BME280;34643;47.964;7.982;2022-11-11T22:36:01;98210.34;;;17.57;64.72
48390;BME280;34643;47.964;7.982;2022-11-11T22:41:22;98202.56;;;17.56;64.54
48390;BME280;34643;47.964;7.982;2022-11-11T22:46:41;98207.88;;;17.54;64.46
48390;BME280;34643;47.964;7.982;2022-11-11T22:52:00;98200.88;;;17.55;64.69
48390;BME280;34643;47.964;7.982;2022-11-11T22:57:19;98211.41;;;17.53;64.62
48390;BME280;34643;47.964;7.982;2022-11-11T23:02:38;98206.25;;;17.52;64.73
48390;BME280;34643;47.964;7.982;2022-11-11T23:07:57;98202.81;;;17.51;64.63
48390;BME280;34643;47.964;7.982;2022-11-11T23:13:15;98208.97;;;17.50;64.52
48390;BME280;34643;47.964;7.982;2022-11-11T23:18:34;98198.53;;;17.50;64.60
48390;BME280;34643;47.964;7.982;2022-11-11T23:23:54;98201.22;;;17.48;64.68
48390;BME280;34643;47.964;7.982;2022-11-11T23:29:12;98186.38;;;17.49;64.37
48390;BME280;34643;47.964;7.982;2022-11-11T23:34:31;98197.72;;;17.48;64.71
48390;BME280;34643;47.964;7.982;2022-11-11T23:39:51;98191.69;;;17.47;64.43
48390;BME280;34643;47.964;7.982;2022-11-11T23:45:09;98189.06;;;17.47;64.59
48390;BME280;34643;47.964;7.982;2022-11-11T23:50:28;98188.22;;;17.47;64.67
48390;BME280;34643;47.964;7.982;2022-11-11T23:55:47;98179.66;;;17.45;64.55
